sensor_id;sensor_type;location;lat;lon;timestamp;temperature;humidity
31677;DHT22;18385;51.572;6.578;2022-09-02T00:00:48;20.30;39.80
31677;DHT22;18385;51.572;6.578;2022-09-02T00:03:14;20.30;39.80
31677;DHT22;18385;51.572;6.578;2022-09-02T00:05:39;20.20;39.90
31677;DHT22;18385;51.572;6.578;2022-09-02T00:08:06;20.20;40.00
31677;DHT22;18385;51.572;6.578;2022-09-02T00:10:35;20.20;40.10
31677;DHT22;18385;51.572;6.578;2022-09-02T00:13:01;20.20;40.10
31677;DHT22;18385;51.572;6.578;2022-09-02T00:15:27;20.20;40.10
31677;DHT22;18385;51.572;6.578;2022-09-02T00:17:53;20.10;40.10
31677;DHT22;18385;51.572;6.578;2022-09-02T00:20:19;20.10;40.30
31677;DHT22;18385;51.572;6.578;2022-09-02T00:22:45;20.20;40.40
31677;DHT22;18385;51.572;6.578;2022-09-02T00:25:11;20.10;40.40
31677;DHT22;18385;51.572;6.578;2022-09-02T00:27:37;20.10;40.40
31677;DHT22;18385;51.572;6.578;2022-09-02T00:30:04;20.10;40.50
31677;DHT22;18385;51.572;6.578;2022-09-02T00:32:30;20.20;40.50
31677;DHT22;18385;51.572;6.578;2022-09-02T00:34:56;20.20;40.60
31677;DHT22;18385;51.572;6.578;2022-09-02T00:37:24;20.20;40.60
31677;DHT22;18385;51.572;6.578;2022-09-02T00:39:51;20.20;40.60
31677;DHT22;18385;51.572;6.578;2022-09-02T00:42:22;20.20;40.70
31677;DHT22;18385;51.572;6.578;2022-09-02T00:44:48;20.20;40.70
31677;DHT22;18385;51.572;6.578;2022-09-02T00:47:14;20.20;40.70
31677;DHT22;18385;51.572;6.578;2022-09-02T00:49:47;20.20;40.80
31677;DHT22;18385;51.572;6.578;2022-09-02T00:52:18;20.20;41.00
31677;DHT22;18385;51.572;6.578;2022-09-02T00:54:53;20.20;41.10
31677;DHT22;18385;51.572;6.578;2022-09-02T00:57:23;20.20;41.00
31677;DHT22;18385;51.572;6.578;2022-09-02T01:02:34;20.10;41.10
31677;DHT22;18385;51.572;6.578;2022-09-02T01:05:03;20.10;41.10
31677;DHT22;18385;51.572;6.578;2022-09-02T01:07:33;20.10;41.20
31677;DHT22;18385;51.572;6.578;2022-09-02T01:10:01;20.10;41.30
31677;DHT22;18385;51.572;6.578;2022-09-02T01:12:28;20.00;41.30
31677;DHT22;18385;51.572;6.578;2022-09-02T01:14:56;20.00;41.40
31677;DHT22;18385;51.572;6.578;2022-09-02T01:17:23;20.00;41.40
31677;DHT22;18385;51.572;6.578;2022-09-02T01:19:55;20.00;41.50
31677;DHT22;18385;51.572;6.578;2022-09-02T01:22:26;19.90;41.60
31677;DHT22;18385;51.572;6.578;2022-09-02T01:24:52;19.90;41.70
31677;DHT22;18385;51.572;6.578;2022-09-02T01:27:21;19.90;41.70
31677;DHT22;18385;51.572;6.578;2022-09-02T01:29:56;19.80;41.70
31677;DHT22;18385;51.572;6.578;2022-09-02T01:32:23;19.80;41.90
31677;DHT22;18385;51.572;6.578;2022-09-02T01:34:49;19.70;41.90
31677;DHT22;18385;51.572;6.578;2022-09-02T01:37:15;19.70;42.00
31677;DHT22;18385;51.572;6.578;2022-09-02T01:39:41;19.70;42.10
31677;DHT22;18385;51.572;6.578;2022-09-02T01:42:07;19.70;42.10
31677;DHT22;18385;51.572;6.578;2022-09-02T01:44:34;19.70;42.10
31677;DHT22;18385;51.572;6.578;2022-09-02T01:47:03;19.60;42.30
31677;DHT22;18385;51.572;6.578;2022-09-02T01:49:29;19.60;42.40
31677;DHT22;18385;51.572;6.578;2022-09-02T01:51:54;19.60;42.40
31677;DHT22;18385;51.572;6.578;2022-09-02T01:54:20;19.50;42.40
31677;DHT22;18385;51.572;6.578;2022-09-02T01:56:46;19.50;42.50
31677;DHT22;18385;51.572;6.578;2022-09-02T01:59:12;19.50;42.60
31677;DHT22;18385;51.572;6.578;2022-09-02T02:01:43;19.50;42.70
31677;DHT22;18385;51.572;6.578;2022-09-02T02:04:10;19.50;42.80
31677;DHT22;18385;51.572;6.578;2022-09-02T02:06:43;19.50;42.90
31677;DHT22;18385;51.572;6.578;2022-09-02T02:09:10;19.40;42.90
31677;DHT22;18385;51.572;6.578;2022-09-02T02:11:36;19.40;43.00
31677;DHT22;18385;51.572;6.578;2022-09-02T02:14:03;19.50;43.10
31677;DHT22;18385;51.572;6.578;2022-09-02T02:16:29;19.50;43.10
31677;DHT22;18385;51.572;6.578;2022-09-02T02:18:56;19.60;43.00
31677;DHT22;18385;51.572;6.578;2022-09-02T02:21:22;19.60;43.00
31677;DHT22;18385;51.572;6.578;2022-09-02T02:23:49;19.70;43.00
31677;DHT22;18385;51.572;6.578;2022-09-02T02:26:15;19.70;42.90
31677;DHT22;18385;51.572;6.578;2022-09-02T02:28:41;19.80;43.00
31677;DHT22;18385;51.572;6.578;2022-09-02T02:31:08;19.80;42.90
31677;DHT22;18385;51.572;6.578;2022-09-02T02:33:34;19.80;42.90
31677;DHT22;18385;51.572;6.578;2022-09-02T02:36:01;19.80;42.90
31677;DHT22;18385;51.572;6.578;2022-09-02T02:38:30;19.70;43.60
31677;DHT22;18385;51.572;6.578;2022-09-02T02:40:56;19.60;43.00
31677;DHT22;18385;51.572;6.578;2022-09-02T02:43:24;19.60;43.20
31677;DHT22;18385;51.572;6.578;2022-09-02T02:45:51;19.50;43.80
31677;DHT22;18385;51.572;6.578;2022-09-02T02:48:20;19.40;43.40
31677;DHT22;18385;51.572;6.578;2022-09-02T02:50:45;19.30;43.40
31677;DHT22;18385;51.572;6.578;2022-09-02T02:53:12;19.20;43.50
31677;DHT22;18385;51.572;6.578;2022-09-02T02:55:38;19.20;43.60
31677;DHT22;18385;51.572;6.578;2022-09-02T02:58:05;19.10;43.70
31677;DHT22;18385;51.572;6.578;2022-09-02T03:00:32;19.10;43.90
31677;DHT22;18385;51.572;6.578;2022-09-02T03:03:05;19.00;44.00
31677;DHT22;18385;51.572;6.578;2022-09-02T03:05:31;19.00;44.10
31677;DHT22;18385;51.572;6.578;2022-09-02T03:07:58;18.90;44.20
31677;DHT22;18385;51.572;6.578;2022-09-02T03:10:25;19.00;44.30
31677;DHT22;18385;51.572;6.578;2022-09-02T03:12:52;19.00;44.40
31677;DHT22;18385;51.572;6.578;2022-09-02T03:15:19;19.10;44.50
31677;DHT22;18385;51.572;6.578;2022-09-02T03:17:49;19.20;44.40
31677;DHT22;18385;51.572;6.578;2022-09-02T03:20:16;19.30;44.30
31677;DHT22;18385;51.572;6.578;2022-09-02T03:22:52;19.40;44.30
31677;DHT22;18385;51.572;6.578;2022-09-02T03:25:20;19.50;44.30
31677;DHT22;18385;51.572;6.578;2022-09-02T03:27:47;19.60;44.20
31677;DHT22;18385;51.572;6.578;2022-09-02T03:30:18;19.70;44.20
31677;DHT22;18385;51.572;6.578;2022-09-02T03:32:44;19.70;44.10
31677;DHT22;18385;51.572;6.578;2022-09-02T03:35:13;19.70;44.10
31677;DHT22;18385;51.572;6.578;2022-09-02T03:37:40;19.80;44.20
31677;DHT22;18385;51.572;6.578;2022-09-02T03:40:09;19.70;44.20
31677;DHT22;18385;51.572;6.578;2022-09-02T03:42:36;19.70;44.30
31677;DHT22;18385;51.572;6.578;2022-09-02T03:45:04;19.60;44.40
31677;DHT22;18385;51.572;6.578;2022-09-02T03:47:31;19.60;44.50
31677;DHT22;18385;51.572;6.578;2022-09-02T03:49:58;19.50;44.60
31677;DHT22;18385;51.572;6.578;2022-09-02T03:52:25;19.40;44.70
31677;DHT22;18385;51.572;6.578;2022-09-02T03:54:50;19.30;44.80
31677;DHT22;18385;51.572;6.578;2022-09-02T03:57:17;19.20;44.90
31677;DHT22;18385;51.572;6.578;2022-09-02T03:59:45;19.10;44.90
31677;DHT22;18385;51.572;6.578;2022-09-02T04:02:11;19.00;45.20
31677;DHT22;18385;51.572;6.578;2022-09-02T04:04:37;19.00;45.20
31677;DHT22;18385;51.572;6.578;2022-09-02T04:07:03;18.90;45.30
31677;DHT22;18385;51.572;6.578;2022-09-02T04:09:29;18.90;45.50
31677;DHT22;18385;51.572;6.578;2022-09-02T04:11:55;18.80;45.60
31677;DHT22;18385;51.572;6.578;2022-09-02T04:14:21;18.80;45.80
31677;DHT22;18385;51.572;6.578;2022-09-02T04:16:47;18.70;45.90
31677;DHT22;18385;51.572;6.578;2022-09-02T04:19:12;18.60;45.90
31677;DHT22;18385;51.572;6.578;2022-09-02T04:21:40;18.60;46.10
31677;DHT22;18385;51.572;6.578;2022-09-02T04:24:08;18.60;46.30
31677;DHT22;18385;51.572;6.578;2022-09-02T04:26:35;18.70;46.30
31677;DHT22;18385;51.572;6.578;2022-09-02T04:29:02;18.70;46.40
31677;DHT22;18385;51.572;6.578;2022-09-02T04:31:29;18.70;46.30
31677;DHT22;18385;51.572;6.578;2022-09-02T04:33:57;18.80;46.40
31677;DHT22;18385;51.572;6.578;2022-09-02T04:36:24;18.80;46.40
31677;DHT22;18385;51.572;6.578;2022-09-02T04:38:53;18.90;46.50
31677;DHT22;18385;51.572;6.578;2022-09-02T04:41:24;18.90;46.20
31677;DHT22;18385;51.572;6.578;2022-09-02T04:43:55;18.80;46.40
31677;DHT22;18385;51.572;6.578;2022-09-02T04:46:23;18.90;46.50
31677;DHT22;18385;51.572;6.578;2022-09-02T04:48:49;18.90;46.20
31677;DHT22;18385;51.572;6.578;2022-09-02T04:51:19;18.80;46.50
31677;DHT22;18385;51.572;6.578;2022-09-02T04:53:49;18.90;46.70
31677;DHT22;18385;51.572;6.578;2022-09-02T04:56:22;18.90;46.70
31677;DHT22;18385;51.572;6.578;2022-09-02T04:58:49;18.90;46.80
31677;DHT22;18385;51.572;6.578;2022-09-02T05:01:20;18.90;46.70
31677;DHT22;18385;51.572;6.578;2022-09-02T05:03:48;18.80;46.70
31677;DHT22;18385;51.572;6.578;2022-09-02T05:06:18;18.80;47.00
31677;DHT22;18385;51.572;6.578;2022-09-02T05:08:45;18.80;46.90
31677;DHT22;18385;51.572;6.578;2022-09-02T05:11:18;18.90;46.70
31677;DHT22;18385;51.572;6.578;2022-09-02T05:13:45;18.80;46.90
31677;DHT22;18385;51.572;6.578;2022-09-02T05:16:15;18.90;46.80
31677;DHT22;18385;51.572;6.578;2022-09-02T05:18:41;18.90;46.80
31677;DHT22;18385;51.572;6.578;2022-09-02T05:21:07;18.90;46.70
31677;DHT22;18385;51.572;6.578;2022-09-02T05:23:33;18.90;46.70
31677;DHT22;18385;51.572;6.578;2022-09-02T05:26:05;18.90;46.80
31677;DHT22;18385;51.572;6.578;2022-09-02T05:28:32;19.00;46.90
31677;DHT22;18385;51.572;6.578;2022-09-02T05:31:04;19.00;46.80
31677;DHT22;18385;51.572;6.578;2022-09-02T05:33:32;19.00;46.90
31677;DHT22;18385;51.572;6.578;2022-09-02T05:35:59;19.00;46.90
31677;DHT22;18385;51.572;6.578;2022-09-02T05:38:26;19.10;46.90
31677;DHT22;18385;51.572;6.578;2022-09-02T05:40:52;19.10;46.90
31677;DHT22;18385;51.572;6.578;2022-09-02T05:43:18;19.30;46.80
31677;DHT22;18385;51.572;6.578;2022-09-02T05:45:43;19.40;46.80
31677;DHT22;18385;51.572;6.578;2022-09-02T05:48:09;19.50;46.60
31677;DHT22;18385;51.572;6.578;2022-09-02T05:50:55;19.60;46.50
31677;DHT22;18385;51.572;6.578;2022-09-02T05:53:21;19.60;46.30
31677;DHT22;18385;51.572;6.578;2022-09-02T05:55:47;19.60;46.20
31677;DHT22;18385;51.572;6.578;2022-09-02T05:58:12;19.70;46.20
31677;DHT22;18385;51.572;6.578;2022-09-02T06:00:38;19.60;46.10
31677;DHT22;18385;51.572;6.578;2022-09-02T06:03:04;19.60;46.10
31677;DHT22;18385;51.572;6.578;2022-09-02T06:05:34;19.60;46.10
31677;DHT22;18385;51.572;6.578;2022-09-02T06:08:17;19.60;46.10
31677;DHT22;18385;51.572;6.578;2022-09-02T06:10:44;19.60;46.10
31677;DHT22;18385;51.572;6.578;2022-09-02T06:13:15;19.60;46.10
31677;DHT22;18385;51.572;6.578;2022-09-02T06:15:42;19.60;46.20
31677;DHT22;18385;51.572;6.578;2022-09-02T06:18:10;19.70;46.20
31677;DHT22;18385;51.572;6.578;2022-09-02T06:20:40;19.70;46.10
31677;DHT22;18385;51.572;6.578;2022-09-02T06:23:06;19.90;46.10
31677;DHT22;18385;51.572;6.578;2022-09-02T06:25:36;20.10;46.00
31677;DHT22;18385;51.572;6.578;2022-09-02T06:28:02;20.20;45.80
31677;DHT22;18385;51.572;6.578;2022-09-02T06:30:28;20.40;45.70
31677;DHT22;18385;51.572;6.578;2022-09-02T06:32:53;20.50;45.50
31677;DHT22;18385;51.572;6.578;2022-09-02T06:35:21;20.60;45.30
31677;DHT22;18385;51.572;6.578;2022-09-02T06:37:47;20.70;45.00
31677;DHT22;18385;51.572;6.578;2022-09-02T06:40:13;20.80;45.00
31677;DHT22;18385;51.572;6.578;2022-09-02T06:42:40;20.90;44.90
31677;DHT22;18385;51.572;6.578;2022-09-02T06:45:19;21.00;44.80
31677;DHT22;18385;51.572;6.578;2022-09-02T06:47:46;21.00;44.60
31677;DHT22;18385;51.572;6.578;2022-09-02T06:50:13;21.00;44.50
31677;DHT22;18385;51.572;6.578;2022-09-02T06:52:40;21.00;44.50
31677;DHT22;18385;51.572;6.578;2022-09-02T06:55:07;21.00;44.40
31677;DHT22;18385;51.572;6.578;2022-09-02T06:57:37;20.90;44.40
31677;DHT22;18385;51.572;6.578;2022-09-02T07:00:08;20.70;44.50
31677;DHT22;18385;51.572;6.578;2022-09-02T07:02:36;20.70;44.70
31677;DHT22;18385;51.572;6.578;2022-09-02T07:05:03;20.70;44.90
31677;DHT22;18385;51.572;6.578;2022-09-02T07:07:36;20.70;45.00
31677;DHT22;18385;51.572;6.578;2022-09-02T07:10:09;20.80;45.00
31677;DHT22;18385;51.572;6.578;2022-09-02T07:12:38;20.90;45.00
31677;DHT22;18385;51.572;6.578;2022-09-02T07:15:08;21.00;45.00
31677;DHT22;18385;51.572;6.578;2022-09-02T07:17:37;21.10;45.30
31677;DHT22;18385;51.572;6.578;2022-09-02T07:20:08;21.20;45.10
31677;DHT22;18385;51.572;6.578;2022-09-02T07:22:47;21.30;45.10
31677;DHT22;18385;51.572;6.578;2022-09-02T07:25:16;21.40;44.90
31677;DHT22;18385;51.572;6.578;2022-09-02T07:27:42;21.60;45.00
31677;DHT22;18385;51.572;6.578;2022-09-02T07:30:10;21.70;45.00
31677;DHT22;18385;51.572;6.578;2022-09-02T07:32:38;22.00;44.90
31677;DHT22;18385;51.572;6.578;2022-09-02T07:35:06;22.20;44.60
31677;DHT22;18385;51.572;6.578;2022-09-02T07:37:34;22.40;44.60
31677;DHT22;18385;51.572;6.578;2022-09-02T07:40:03;22.70;44.40
31677;DHT22;18385;51.572;6.578;2022-09-02T07:42:30;23.00;43.80
31677;DHT22;18385;51.572;6.578;2022-09-02T07:44:56;23.20;43.70
31677;DHT22;18385;51.572;6.578;2022-09-02T07:47:22;23.30;43.40
31677;DHT22;18385;51.572;6.578;2022-09-02T07:49:48;23.30;43.40
31677;DHT22;18385;51.572;6.578;2022-09-02T07:52:14;23.40;43.10
31677;DHT22;18385;51.572;6.578;2022-09-02T07:54:41;23.40;42.90
31677;DHT22;18385;51.572;6.578;2022-09-02T07:57:07;23.30;42.70
31677;DHT22;18385;51.572;6.578;2022-09-02T07:59:34;23.10;42.80
31677;DHT22;18385;51.572;6.578;2022-09-02T08:02:01;23.00;42.80
31677;DHT22;18385;51.572;6.578;2022-09-02T08:04:27;22.90;42.80
31677;DHT22;18385;51.572;6.578;2022-09-02T08:06:54;22.70;42.90
31677;DHT22;18385;51.572;6.578;2022-09-02T08:09:21;22.60;42.90
31677;DHT22;18385;51.572;6.578;2022-09-02T08:11:48;22.50;43.10
31677;DHT22;18385;51.572;6.578;2022-09-02T08:14:18;22.40;43.10
31677;DHT22;18385;51.572;6.578;2022-09-02T08:16:45;22.40;43.10
31677;DHT22;18385;51.572;6.578;2022-09-02T08:19:12;22.20;43.20
31677;DHT22;18385;51.572;6.578;2022-09-02T08:21:38;22.10;43.20
31677;DHT22;18385;51.572;6.578;2022-09-02T08:24:04;22.10;43.30
31677;DHT22;18385;51.572;6.578;2022-09-02T08:26:30;22.10;43.50
31677;DHT22;18385;51.572;6.578;2022-09-02T08:28:56;22.10;43.50
31677;DHT22;18385;51.572;6.578;2022-09-02T08:31:22;22.20;43.50
31677;DHT22;18385;51.572;6.578;2022-09-02T08:33:48;22.30;43.60
31677;DHT22;18385;51.572;6.578;2022-09-02T08:36:14;22.50;43.50
31677;DHT22;18385;51.572;6.578;2022-09-02T08:38:41;22.80;43.30
31677;DHT22;18385;51.572;6.578;2022-09-02T08:41:19;23.20;43.20
31677;DHT22;18385;51.572;6.578;2022-09-02T08:43:46;23.70;42.90
31677;DHT22;18385;51.572;6.578;2022-09-02T08:46:15;24.10;42.60
31677;DHT22;18385;51.572;6.578;2022-09-02T08:52:03;24.80;41.60
31677;DHT22;18385;51.572;6.578;2022-09-02T08:56:49;25.00;40.90
31677;DHT22;18385;51.572;6.578;2022-09-02T08:59:21;25.00;40.80
31677;DHT22;18385;51.572;6.578;2022-09-02T09:15:49;24.70;40.70
31677;DHT22;18385;51.572;6.578;2022-09-02T09:18:38;24.80;40.70
31677;DHT22;18385;51.572;6.578;2022-09-02T09:21:05;24.90;40.60
31677;DHT22;18385;51.572;6.578;2022-09-02T09:23:38;25.10;40.60
31677;DHT22;18385;51.572;6.578;2022-09-02T09:26:12;25.20;40.40
31677;DHT22;18385;51.572;6.578;2022-09-02T09:28:41;25.30;40.10
31677;DHT22;18385;51.572;6.578;2022-09-02T09:31:14;25.40;40.00
31677;DHT22;18385;51.572;6.578;2022-09-02T09:33:59;25.50;40.00
31677;DHT22;18385;51.572;6.578;2022-09-02T09:39:23;25.60;39.50
31677;DHT22;18385;51.572;6.578;2022-09-02T09:41:51;25.80;39.60
31677;DHT22;18385;51.572;6.578;2022-09-02T09:44:41;25.80;39.50
31677;DHT22;18385;51.572;6.578;2022-09-02T09:47:21;25.90;39.30
31677;DHT22;18385;51.572;6.578;2022-09-02T09:50:08;25.90;39.30
31677;DHT22;18385;51.572;6.578;2022-09-02T09:52:34;26.00;39.10
31677;DHT22;18385;51.572;6.578;2022-09-02T09:55:15;26.10;39.00
31677;DHT22;18385;51.572;6.578;2022-09-02T09:57:44;26.10;39.00
31677;DHT22;18385;51.572;6.578;2022-09-02T10:00:30;26.20;39.00
31677;DHT22;18385;51.572;6.578;2022-09-02T10:03:03;26.30;39.20
31677;DHT22;18385;51.572;6.578;2022-09-02T10:05:35;26.40;38.60
31677;DHT22;18385;51.572;6.578;2022-09-02T10:13:30;26.70;38.50
31677;DHT22;18385;51.572;6.578;2022-09-02T10:19:32;26.90;38.30
31677;DHT22;18385;51.572;6.578;2022-09-02T10:30:25;27.10;37.80
31677;DHT22;18385;51.572;6.578;2022-09-02T10:33:21;27.10;37.50
31677;DHT22;18385;51.572;6.578;2022-09-02T10:35:57;27.20;37.60
31677;DHT22;18385;51.572;6.578;2022-09-02T10:38:36;27.30;37.30
31677;DHT22;18385;51.572;6.578;2022-09-02T10:44:19;27.50;36.90
31677;DHT22;18385;51.572;6.578;2022-09-02T10:47:02;27.70;37.00
31677;DHT22;18385;51.572;6.578;2022-09-02T10:52:45;27.80;36.70
31677;DHT22;18385;51.572;6.578;2022-09-02T10:55:37;27.90;36.80
31677;DHT22;18385;51.572;6.578;2022-09-02T10:58:48;28.20;36.80
31677;DHT22;18385;51.572;6.578;2022-09-02T11:01:45;28.50;36.40
31677;DHT22;18385;51.572;6.578;2022-09-02T11:05:14;28.70;36.00
31677;DHT22;18385;51.572;6.578;2022-09-02T11:07:13;28.70;35.70
31677;DHT22;18385;51.572;6.578;2022-09-02T11:09:58;28.80;35.50
31677;DHT22;18385;51.572;6.578;2022-09-02T11:12:30;28.90;35.30
31677;DHT22;18385;51.572;6.578;2022-09-02T11:15:03;28.90;35.20
31677;DHT22;18385;51.572;6.578;2022-09-02T11:17:47;28.90;35.20
31677;DHT22;18385;51.572;6.578;2022-09-02T11:20:43;29.00;35.00
31677;DHT22;18385;51.572;6.578;2022-09-02T11:26:24;29.10;34.80
31677;DHT22;18385;51.572;6.578;2022-09-02T11:29:04;29.30;34.70
31677;DHT22;18385;51.572;6.578;2022-09-02T11:31:41;29.80;34.40
31677;DHT22;18385;51.572;6.578;2022-09-02T11:34:59;30.00;33.60
31677;DHT22;18385;51.572;6.578;2022-09-02T11:39:59;30.10;33.40
31677;DHT22;18385;51.572;6.578;2022-09-02T11:48:00;29.80;32.80
31677;DHT22;18385;51.572;6.578;2022-09-02T11:53:34;29.70;32.70
31677;DHT22;18385;51.572;6.578;2022-09-02T11:56:19;29.80;32.60
31677;DHT22;18385;51.572;6.578;2022-09-02T11:58:48;30.10;32.50
31677;DHT22;18385;51.572;6.578;2022-09-02T12:03:45;30.40;31.80
31677;DHT22;18385;51.572;6.578;2022-09-02T12:06:16;30.40;31.40
31677;DHT22;18385;51.572;6.578;2022-09-02T12:11:35;30.80;30.80
31677;DHT22;18385;51.572;6.578;2022-09-02T12:14:06;30.90;30.70
31677;DHT22;18385;51.572;6.578;2022-09-02T12:16:42;30.90;30.40
31677;DHT22;18385;51.572;6.578;2022-09-02T12:21:36;30.80;30.20
31677;DHT22;18385;51.572;6.578;2022-09-02T12:24:21;30.70;30.00
31677;DHT22;18385;51.572;6.578;2022-09-02T12:31:51;30.80;29.80
31677;DHT22;18385;51.572;6.578;2022-09-02T12:44:43;31.50;28.90
31677;DHT22;18385;51.572;6.578;2022-09-02T12:52:10;31.60;28.40
31677;DHT22;18385;51.572;6.578;2022-09-02T12:54:47;31.80;28.40
31677;DHT22;18385;51.572;6.578;2022-09-02T12:57:15;32.00;28.40
31677;DHT22;18385;51.572;6.578;2022-09-02T12:59:43;32.10;27.90
31677;DHT22;18385;51.572;6.578;2022-09-02T13:07:57;32.30;27.80
31677;DHT22;18385;51.572;6.578;2022-09-02T13:19:28;32.80;27.60
31677;DHT22;18385;51.572;6.578;2022-09-02T13:27:56;33.80;26.60
31677;DHT22;18385;51.572;6.578;2022-09-02T13:33:04;33.80;25.90
31677;DHT22;18385;51.572;6.578;2022-09-02T13:35:31;34.00;25.80
31677;DHT22;18385;51.572;6.578;2022-09-02T13:37:58;34.40;26.00
31677;DHT22;18385;51.572;6.578;2022-09-02T13:40:27;34.90;25.20
31677;DHT22;18385;51.572;6.578;2022-09-02T13:43:15;34.50;24.10
31677;DHT22;18385;51.572;6.578;2022-09-02T13:45:42;34.50;24.90
31677;DHT22;18385;51.572;6.578;2022-09-02T13:48:23;35.50;25.10
31677;DHT22;18385;51.572;6.578;2022-09-02T13:50:52;36.40;24.30
31677;DHT22;18385;51.572;6.578;2022-09-02T13:53:35;37.10;23.90
31677;DHT22;18385;51.572;6.578;2022-09-02T13:56:05;37.70;23.80
31677;DHT22;18385;51.572;6.578;2022-09-02T13:58:36;37.60;22.80
31677;DHT22;18385;51.572;6.578;2022-09-02T14:03:53;37.50;23.00
31677;DHT22;18385;51.572;6.578;2022-09-02T14:06:21;36.90;22.00
31677;DHT22;18385;51.572;6.578;2022-09-02T14:08:50;36.20;22.90
31677;DHT22;18385;51.572;6.578;2022-09-02T14:11:17;35.30;22.30
31677;DHT22;18385;51.572;6.578;2022-09-02T14:13:46;34.40;22.50
31677;DHT22;18385;51.572;6.578;2022-09-02T14:16:34;33.80;22.60
31677;DHT22;18385;51.572;6.578;2022-09-02T14:21:29;32.70;22.70
31677;DHT22;18385;51.572;6.578;2022-09-02T14:23:54;32.20;23.10
31677;DHT22;18385;51.572;6.578;2022-09-02T14:26:37;31.90;23.30
31677;DHT22;18385;51.572;6.578;2022-09-02T14:29:06;32.90;24.20
31677;DHT22;18385;51.572;6.578;2022-09-02T14:31:33;34.20;23.50
31677;DHT22;18385;51.572;6.578;2022-09-02T14:34:00;34.40;22.50
31677;DHT22;18385;51.572;6.578;2022-09-02T14:36:35;34.40;22.00
31677;DHT22;18385;51.572;6.578;2022-09-02T14:39:15;33.90;21.90
31677;DHT22;18385;51.572;6.578;2022-09-02T14:41:49;33.40;22.30
31677;DHT22;18385;51.572;6.578;2022-09-02T14:44:27;34.10;22.90
31677;DHT22;18385;51.572;6.578;2022-09-02T14:47:04;34.70;22.20
31677;DHT22;18385;51.572;6.578;2022-09-02T14:49:51;35.10;21.90
31677;DHT22;18385;51.572;6.578;2022-09-02T14:54:48;34.40;21.30
31677;DHT22;18385;51.572;6.578;2022-09-02T14:59:49;35.60;21.90
31677;DHT22;18385;51.572;6.578;2022-09-02T15:04:53;36.80;20.90
31677;DHT22;18385;51.572;6.578;2022-09-02T15:07:19;36.90;20.70
31677;DHT22;18385;51.572;6.578;2022-09-02T15:09:45;37.10;20.60
31677;DHT22;18385;51.572;6.578;2022-09-02T15:12:16;37.60;20.60
31677;DHT22;18385;51.572;6.578;2022-09-02T15:14:44;38.00;20.00
31677;DHT22;18385;51.572;6.578;2022-09-02T15:17:12;37.50;20.20
31677;DHT22;18385;51.572;6.578;2022-09-02T15:19:39;36.70;20.10
31677;DHT22;18385;51.572;6.578;2022-09-02T15:22:04;36.00;20.40
31677;DHT22;18385;51.572;6.578;2022-09-02T15:24:30;35.50;20.40
31677;DHT22;18385;51.572;6.578;2022-09-02T15:26:56;35.10;20.40
31677;DHT22;18385;51.572;6.578;2022-09-02T15:29:22;34.60;20.70
31677;DHT22;18385;51.572;6.578;2022-09-02T15:31:50;34.20;20.70
31677;DHT22;18385;51.572;6.578;2022-09-02T15:34:16;33.80;20.80
31677;DHT22;18385;51.572;6.578;2022-09-02T15:36:42;33.50;21.00
31677;DHT22;18385;51.572;6.578;2022-09-02T15:39:08;33.20;21.10
31677;DHT22;18385;51.572;6.578;2022-09-02T15:41:34;33.10;21.10
31677;DHT22;18385;51.572;6.578;2022-09-02T15:44:00;32.90;21.20
31677;DHT22;18385;51.572;6.578;2022-09-02T15:46:31;32.90;21.10
31677;DHT22;18385;51.572;6.578;2022-09-02T15:49:00;32.80;21.30
31677;DHT22;18385;51.572;6.578;2022-09-02T15:51:26;32.80;21.20
31677;DHT22;18385;51.572;6.578;2022-09-02T15:53:54;32.70;21.30
31677;DHT22;18385;51.572;6.578;2022-09-02T15:56:25;32.70;21.20
31677;DHT22;18385;51.572;6.578;2022-09-02T15:58:59;32.60;21.40
31677;DHT22;18385;51.572;6.578;2022-09-02T16:01:28;32.40;21.30
31677;DHT22;18385;51.572;6.578;2022-09-02T16:03:54;32.30;21.50
31677;DHT22;18385;51.572;6.578;2022-09-02T16:06:20;32.20;21.60
31677;DHT22;18385;51.572;6.578;2022-09-02T16:08:46;32.20;21.50
31677;DHT22;18385;51.572;6.578;2022-09-02T16:11:11;32.20;21.60
31677;DHT22;18385;51.572;6.578;2022-09-02T16:13:37;32.30;21.80
31677;DHT22;18385;51.572;6.578;2022-09-02T16:16:05;32.50;21.70
31677;DHT22;18385;51.572;6.578;2022-09-02T16:18:33;32.40;21.50
31677;DHT22;18385;51.572;6.578;2022-09-02T16:20:59;32.40;21.50
31677;DHT22;18385;51.572;6.578;2022-09-02T16:23:25;32.30;21.50
31677;DHT22;18385;51.572;6.578;2022-09-02T16:26:29;32.20;21.60
31677;DHT22;18385;51.572;6.578;2022-09-02T16:28:56;32.30;21.90
31677;DHT22;18385;51.572;6.578;2022-09-02T16:31:24;32.20;21.70
31677;DHT22;18385;51.572;6.578;2022-09-02T16:33:52;32.20;21.80
31677;DHT22;18385;51.572;6.578;2022-09-02T16:36:18;32.20;21.70
31677;DHT22;18385;51.572;6.578;2022-09-02T16:38:44;32.00;21.80
31677;DHT22;18385;51.572;6.578;2022-09-02T16:43:52;31.60;21.90
31677;DHT22;18385;51.572;6.578;2022-09-02T16:46:18;31.40;22.10
31677;DHT22;18385;51.572;6.578;2022-09-02T16:48:44;31.20;22.10
31677;DHT22;18385;51.572;6.578;2022-09-02T16:51:10;31.00;22.10
31677;DHT22;18385;51.572;6.578;2022-09-02T16:53:36;30.90;22.30
31677;DHT22;18385;51.572;6.578;2022-09-02T16:56:02;30.80;23.00
31677;DHT22;18385;51.572;6.578;2022-09-02T16:58:29;30.70;22.40
31677;DHT22;18385;51.572;6.578;2022-09-02T17:00:56;30.60;22.60
31677;DHT22;18385;51.572;6.578;2022-09-02T17:03:22;30.60;22.70
31677;DHT22;18385;51.572;6.578;2022-09-02T17:05:48;30.50;22.70
31677;DHT22;18385;51.572;6.578;2022-09-02T17:08:14;30.50;22.90
31677;DHT22;18385;51.572;6.578;2022-09-02T17:10:41;30.40;22.90
31677;DHT22;18385;51.572;6.578;2022-09-02T17:13:06;30.20;22.90
31677;DHT22;18385;51.572;6.578;2022-09-02T17:15:32;30.10;23.00
31677;DHT22;18385;51.572;6.578;2022-09-02T17:17:58;30.00;23.10
31677;DHT22;18385;51.572;6.578;2022-09-02T17:20:24;29.90;23.20
31677;DHT22;18385;51.572;6.578;2022-09-02T17:22:50;29.80;23.30
31677;DHT22;18385;51.572;6.578;2022-09-02T17:25:16;29.70;23.40
31677;DHT22;18385;51.572;6.578;2022-09-02T17:27:42;29.60;23.40
31677;DHT22;18385;51.572;6.578;2022-09-02T17:30:09;29.60;23.50
31677;DHT22;18385;51.572;6.578;2022-09-02T17:32:39;29.50;23.50
31677;DHT22;18385;51.572;6.578;2022-09-02T17:35:09;29.50;23.60
31677;DHT22;18385;51.572;6.578;2022-09-02T17:37:35;29.40;23.60
31677;DHT22;18385;51.572;6.578;2022-09-02T17:40:05;29.30;23.70
31677;DHT22;18385;51.572;6.578;2022-09-02T17:42:32;29.20;23.80
31677;DHT22;18385;51.572;6.578;2022-09-02T17:44:58;29.10;23.90
31677;DHT22;18385;51.572;6.578;2022-09-02T17:47:24;29.00;24.00
31677;DHT22;18385;51.572;6.578;2022-09-02T17:49:50;28.90;24.10
31677;DHT22;18385;51.572;6.578;2022-09-02T17:52:21;28.80;24.20
31677;DHT22;18385;51.572;6.578;2022-09-02T17:54:50;28.70;24.20